sensor_id;sensor_type;location;lat;lon;timestamp;temperature;humidity
9323;DHT22;4700;48.822;9.270;2023-08-06T00:23:58;14.80;43.10
9323;DHT22;4700;48.822;9.270;2023-08-06T02:23:41;14.60;1.00
9323;DHT22;4700;48.822;9.270;2023-08-06T02:26:27;14.50;1.00
9323;DHT22;4700;48.822;9.270;2023-08-06T04:30:27;14.10;1.00
9323;DHT22;4700;48.822;9.270;2023-08-06T04:38:24;14.00;1.00
9323;DHT22;4700;48.822;9.270;2023-08-06T06:02:08;16.70;1.00
9323;DHT22;4700;48.822;9.270;2023-08-06T06:18:01;16.30;1.00
9323;DHT22;4700;48.822;9.270;2023-08-06T07:51:05;15.50;1.00
9323;DHT22;4700;48.822;9.270;2023-08-06T07:53:50;15.60;1.00
9323;DHT22;4700;48.822;9.270;2023-08-06T07:56:38;15.60;1.00
9323;DHT22;4700;48.822;9.270;2023-08-06T07:59:24;15.90;1.00
9323;DHT22;4700;48.822;9.270;2023-08-06T08:02:10;16.10;1.00
9323;DHT22;4700;48.822;9.270;2023-08-06T08:04:58;16.20;1.00
9323;DHT22;4700;48.822;9.270;2023-08-06T08:07:43;16.40;1.00
9323;DHT22;4700;48.822;9.270;2023-08-06T08:10:32;16.40;1.00
9323;DHT22;4700;48.822;9.270;2023-08-06T08:13:18;16.20;1.00
9323;DHT22;4700;48.822;9.270;2023-08-06T08:16:04;16.80;1.00
9323;DHT22;4700;48.822;9.270;2023-08-06T08:18:51;17.20;1.00
9323;DHT22;4700;48.822;9.270;2023-08-06T08:21:37;17.40;1.00
9323;DHT22;4700;48.822;9.270;2023-08-06T08:24:22;17.60;1.00
9323;DHT22;4700;48.822;9.270;2023-08-06T08:29:56;18.60;1.00
9323;DHT22;4700;48.822;9.270;2023-08-06T08:32:42;18.60;1.00
9323;DHT22;4700;48.822;9.270;2023-08-06T08:35:28;19.60;1.00
9323;DHT22;4700;48.822;9.270;2023-08-06T08:38:13;19.70;1.00
9323;DHT22;4700;48.822;9.270;2023-08-06T08:40:59;20.70;1.00
9323;DHT22;4700;48.822;9.270;2023-08-06T08:43:45;20.40;1.00
9323;DHT22;4700;48.822;9.270;2023-08-06T08:46:33;20.30;1.00
9323;DHT22;4700;48.822;9.270;2023-08-06T08:49:21;20.40;1.00
9323;DHT22;4700;48.822;9.270;2023-08-06T08:52:04;19.90;1.00
9323;DHT22;4700;48.822;9.270;2023-08-06T08:54:51;20.70;1.00
9323;DHT22;4700;48.822;9.270;2023-08-06T08:57:38;21.60;1.00
9323;DHT22;4700;48.822;9.270;2023-08-06T09:00:24;22.20;1.00
9323;DHT22;4700;48.822;9.270;2023-08-06T09:03:12;21.90;1.00
9323;DHT22;4700;48.822;9.270;2023-08-06T09:05:58;21.00;1.00
9323;DHT22;4700;48.822;9.270;2023-08-06T09:08:51;19.90;1.00
9323;DHT22;4700;48.822;9.270;2023-08-06T09:11:43;19.80;1.00
9323;DHT22;4700;48.822;9.270;2023-08-06T09:14:32;19.20;1.00
9323;DHT22;4700;48.822;9.270;2023-08-06T09:17:23;19.10;1.00
9323;DHT22;4700;48.822;9.270;2023-08-06T09:20:12;19.00;1.00
9323;DHT22;4700;48.822;9.270;2023-08-06T09:23:07;19.00;1.00
9323;DHT22;4700;48.822;9.270;2023-08-06T09:25:53;18.50;1.00
9323;DHT22;4700;48.822;9.270;2023-08-06T09:28:39;18.60;1.00
9323;DHT22;4700;48.822;9.270;2023-08-06T09:31:33;18.70;1.00
9323;DHT22;4700;48.822;9.270;2023-08-06T09:34:20;18.80;1.00
9323;DHT22;4700;48.822;9.270;2023-08-06T09:37:09;19.00;1.00
9323;DHT22;4700;48.822;9.270;2023-08-06T09:39:55;19.20;1.00
9323;DHT22;4700;48.822;9.270;2023-08-06T09:42:42;18.90;1.00
9323;DHT22;4700;48.822;9.270;2023-08-06T09:45:32;18.90;1.00
9323;DHT22;4700;48.822;9.270;2023-08-06T09:51:05;18.60;1.00
9323;DHT22;4700;48.822;9.270;2023-08-06T09:53:56;18.30;1.00
9323;DHT22;4700;48.822;9.270;2023-08-06T09:56:42;18.30;1.00
9323;DHT22;4700;48.822;9.270;2023-08-06T09:59:28;18.20;1.00
9323;DHT22;4700;48.822;9.270;2023-08-06T10:02:14;17.70;1.00
9323;DHT22;4700;48.822;9.270;2023-08-06T10:05:00;17.60;1.00
9323;DHT22;4700;48.822;9.270;2023-08-06T10:07:50;17.70;1.00
9323;DHT22;4700;48.822;9.270;2023-08-06T10:10:38;17.80;1.00
9323;DHT22;4700;48.822;9.270;2023-08-06T10:13:24;17.70;1.00
9323;DHT22;4700;48.822;9.270;2023-08-06T10:16:10;17.50;1.00
9323;DHT22;4700;48.822;9.270;2023-08-06T10:18:57;17.70;1.00
9323;DHT22;4700;48.822;9.270;2023-08-06T10:22:11;17.90;1.00
9323;DHT22;4700;48.822;9.270;2023-08-06T10:24:57;17.20;1.00
9323;DHT22;4700;48.822;9.270;2023-08-06T10:27:54;19.80;1.00
9323;DHT22;4700;48.822;9.270;2023-08-06T10:30:44;18.90;1.00
9323;DHT22;4700;48.822;9.270;2023-08-06T10:36:26;18.60;1.00
9323;DHT22;4700;48.822;9.270;2023-08-06T10:39:13;18.50;1.00
9323;DHT22;4700;48.822;9.270;2023-08-06T10:42:01;18.70;1.00
9323;DHT22;4700;48.822;9.270;2023-08-06T10:47:49;18.80;1.00
9323;DHT22;4700;48.822;9.270;2023-08-06T10:50:35;18.40;1.00
9323;DHT22;4700;48.822;9.270;2023-08-06T10:53:21;18.60;1.00
9323;DHT22;4700;48.822;9.270;2023-08-06T10:56:12;18.50;1.00
9323;DHT22;4700;48.822;9.270;2023-08-06T10:58:59;18.60;1.00
9323;DHT22;4700;48.822;9.270;2023-08-06T11:01:44;18.50;1.00
9323;DHT22;4700;48.822;9.270;2023-08-06T11:04:32;17.90;1.00
9323;DHT22;4700;48.822;9.270;2023-08-06T11:07:18;17.90;1.00
9323;DHT22;4700;48.822;9.270;2023-08-06T11:10:07;17.90;1.00
9323;DHT22;4700;48.822;9.270;2023-08-06T11:12:53;17.30;1.00
9323;DHT22;4700;48.822;9.270;2023-08-06T11:15:39;17.00;1.00
9323;DHT22;4700;48.822;9.270;2023-08-06T11:18:25;16.60;1.00
9323;DHT22;4700;48.822;9.270;2023-08-06T11:21:12;16.50;1.00
9323;DHT22;4700;48.822;9.270;2023-08-06T11:23:57;16.50;1.00
9323;DHT22;4700;48.822;9.270;2023-08-06T11:26:45;16.60;1.00
9323;DHT22;4700;48.822;9.270;2023-08-06T11:29:37;16.70;1.00
9323;DHT22;4700;48.822;9.270;2023-08-06T11:35:12;16.80;1.00
9323;DHT22;4700;48.822;9.270;2023-08-06T11:38:03;16.80;1.00
9323;DHT22;4700;48.822;9.270;2023-08-06T11:40:50;16.60;1.00
9323;DHT22;4700;48.822;9.270;2023-08-06T11:43:36;16.50;1.00
9323;DHT22;4700;48.822;9.270;2023-08-06T11:46:22;16.60;1.00
9323;DHT22;4700;48.822;9.270;2023-08-06T11:49:09;16.50;1.00
9323;DHT22;4700;48.822;9.270;2023-08-06T11:51:54;16.60;1.00
9323;DHT22;4700;48.822;9.270;2023-08-06T11:54:42;16.70;1.00
9323;DHT22;4700;48.822;9.270;2023-08-06T11:57:29;16.70;1.00
9323;DHT22;4700;48.822;9.270;2023-08-06T12:03:05;16.20;1.00
9323;DHT22;4700;48.822;9.270;2023-08-06T12:05:54;16.30;1.00
9323;DHT22;4700;48.822;9.270;2023-08-06T12:08:39;15.90;1.00
9323;DHT22;4700;48.822;9.270;2023-08-06T12:11:28;16.00;1.00
9323;DHT22;4700;48.822;9.270;2023-08-06T12:14:13;15.70;1.00
9323;DHT22;4700;48.822;9.270;2023-08-06T12:16:59;15.70;1.00
9323;DHT22;4700;48.822;9.270;2023-08-06T12:19:45;15.40;1.00
9323;DHT22;4700;48.822;9.270;2023-08-06T12:22:32;15.30;1.00
9323;DHT22;4700;48.822;9.270;2023-08-06T12:25:19;15.30;1.00
9323;DHT22;4700;48.822;9.270;2023-08-06T12:28:06;15.20;1.00
9323;DHT22;4700;48.822;9.270;2023-08-06T12:30:53;15.10;1.00
9323;DHT22;4700;48.822;9.270;2023-08-06T12:33:40;15.40;1.00
9323;DHT22;4700;48.822;9.270;2023-08-06T12:36:25;15.10;1.00
9323;DHT22;4700;48.822;9.270;2023-08-06T12:41:57;15.20;1.00
9323;DHT22;4700;48.822;9.270;2023-08-06T12:47:33;15.50;1.00
9323;DHT22;4700;48.822;9.270;2023-08-06T12:50:19;15.70;1.00
9323;DHT22;4700;48.822;9.270;2023-08-06T12:53:05;15.90;1.00
9323;DHT22;4700;48.822;9.270;2023-08-06T12:55:51;16.10;1.00
9323;DHT22;4700;48.822;9.270;2023-08-06T12:58:38;16.40;1.00
9323;DHT22;4700;48.822;9.270;2023-08-06T13:01:26;16.40;1.00
9323;DHT22;4700;48.822;9.270;2023-08-06T13:04:12;16.40;1.00
9323;DHT22;4700;48.822;9.270;2023-08-06T13:06:59;16.40;1.00
9323;DHT22;4700;48.822;9.270;2023-08-06T13:09:46;16.50;1.00
9323;DHT22;4700;48.822;9.270;2023-08-06T13:12:34;16.40;1.00
9323;DHT22;4700;48.822;9.270;2023-08-06T13:15:21;16.70;1.00
9323;DHT22;4700;48.822;9.270;2023-08-06T13:18:07;17.10;1.00
9323;DHT22;4700;48.822;9.270;2023-08-06T13:20:53;16.90;1.00
9323;DHT22;4700;48.822;9.270;2023-08-06T13:23:38;17.00;1.00
9323;DHT22;4700;48.822;9.270;2023-08-06T13:26:25;17.20;1.00
9323;DHT22;4700;48.822;9.270;2023-08-06T13:29:14;17.20;1.00
9323;DHT22;4700;48.822;9.270;2023-08-06T13:31:59;17.30;1.00
9323;DHT22;4700;48.822;9.270;2023-08-06T13:34:45;17.50;1.00
9323;DHT22;4700;48.822;9.270;2023-08-06T13:37:31;17.70;1.00
9323;DHT22;4700;48.822;9.270;2023-08-06T13:40:16;18.10;1.00
9323;DHT22;4700;48.822;9.270;2023-08-06T13:43:03;17.80;1.00
9323;DHT22;4700;48.822;9.270;2023-08-06T13:45:49;17.90;1.00
9323;DHT22;4700;48.822;9.270;2023-08-06T13:48:34;17.80;1.00
9323;DHT22;4700;48.822;9.270;2023-08-06T13:51:22;17.70;1.00
9323;DHT22;4700;48.822;9.270;2023-08-06T13:54:08;17.70;1.00
9323;DHT22;4700;48.822;9.270;2023-08-06T13:56:54;17.50;1.00
9323;DHT22;4700;48.822;9.270;2023-08-06T13:59:41;17.70;1.00
9323;DHT22;4700;48.822;9.270;2023-08-06T14:02:27;17.80;1.00
9323;DHT22;4700;48.822;9.270;2023-08-06T14:05:13;17.20;1.00
9323;DHT22;4700;48.822;9.270;2023-08-06T14:07:59;18.30;1.00
9323;DHT22;4700;48.822;9.270;2023-08-06T14:10:45;17.60;1.00
9323;DHT22;4700;48.822;9.270;2023-08-06T14:13:31;17.50;1.00
9323;DHT22;4700;48.822;9.270;2023-08-06T14:16:18;17.60;1.00
9323;DHT22;4700;48.822;9.270;2023-08-06T14:19:03;17.20;1.00
9323;DHT22;4700;48.822;9.270;2023-08-06T14:21:49;15.90;1.00
9323;DHT22;4700;48.822;9.270;2023-08-06T14:24:35;16.70;1.00
9323;DHT22;4700;48.822;9.270;2023-08-06T14:27:21;16.60;1.00
9323;DHT22;4700;48.822;9.270;2023-08-06T14:30:07;16.70;1.00
9323;DHT22;4700;48.822;9.270;2023-08-06T14:32:55;16.80;1.00
9323;DHT22;4700;48.822;9.270;2023-08-06T14:35:40;17.10;1.00
9323;DHT22;4700;48.822;9.270;2023-08-06T14:38:26;17.20;1.00
9323;DHT22;4700;48.822;9.270;2023-08-06T14:41:11;17.20;1.00
9323;DHT22;4700;48.822;9.270;2023-08-06T14:43:57;17.40;1.00
9323;DHT22;4700;48.822;9.270;2023-08-06T14:49:31;17.70;1.00
9323;DHT22;4700;48.822;9.270;2023-08-06T14:55:03;17.70;1.00
9323;DHT22;4700;48.822;9.270;2023-08-06T14:57:49;17.40;1.00
9323;DHT22;4700;48.822;9.270;2023-08-06T15:00:35;17.30;1.00
9323;DHT22;4700;48.822;9.270;2023-08-06T15:03:21;16.90;1.00
9323;DHT22;4700;48.822;9.270;2023-08-06T15:06:08;16.80;1.00
9323;DHT22;4700;48.822;9.270;2023-08-06T15:08:54;17.70;1.00
9323;DHT22;4700;48.822;9.270;2023-08-06T15:11:42;16.90;1.00
9323;DHT22;4700;48.822;9.270;2023-08-06T15:14:28;17.00;1.00
9323;DHT22;4700;48.822;9.270;2023-08-06T15:19:59;16.80;1.00
9323;DHT22;4700;48.822;9.270;2023-08-06T15:22:46;16.80;1.00
9323;DHT22;4700;48.822;9.270;2023-08-06T15:25:32;16.60;1.00
9323;DHT22;4700;48.822;9.270;2023-08-06T15:28:18;16.40;1.00
9323;DHT22;4700;48.822;9.270;2023-08-06T15:31:03;16.30;1.00
9323;DHT22;4700;48.822;9.270;2023-08-06T15:33:52;16.50;1.00
9323;DHT22;4700;48.822;9.270;2023-08-06T15:39:28;16.50;1.00
9323;DHT22;4700;48.822;9.270;2023-08-06T15:42:13;16.60;1.00
9323;DHT22;4700;48.822;9.270;2023-08-06T15:45:00;16.70;1.00
9323;DHT22;4700;48.822;9.270;2023-08-06T15:47:47;16.90;1.00
9323;DHT22;4700;48.822;9.270;2023-08-06T15:50:33;16.80;1.00
9323;DHT22;4700;48.822;9.270;2023-08-06T15:53:19;16.80;1.00
9323;DHT22;4700;48.822;9.270;2023-08-06T15:56:06;16.80;1.00
9323;DHT22;4700;48.822;9.270;2023-08-06T15:58:52;16.80;1.00
9323;DHT22;4700;48.822;9.270;2023-08-06T16:01:38;16.70;1.00
9323;DHT22;4700;48.822;9.270;2023-08-06T16:04:25;16.80;1.00
9323;DHT22;4700;48.822;9.270;2023-08-06T16:07:11;16.80;1.00
9323;DHT22;4700;48.822;9.270;2023-08-06T16:09:57;16.80;1.00
9323;DHT22;4700;48.822;9.270;2023-08-06T16:12:44;16.90;1.00
9323;DHT22;4700;48.822;9.270;2023-08-06T16:15:30;16.90;1.00
9323;DHT22;4700;48.822;9.270;2023-08-06T16:18:16;16.60;1.00
9323;DHT22;4700;48.822;9.270;2023-08-06T16:21:01;16.70;1.00
9323;DHT22;4700;48.822;9.270;2023-08-06T16:23:47;16.40;1.00
9323;DHT22;4700;48.822;9.270;2023-08-06T16:26:33;16.60;1.00
9323;DHT22;4700;48.822;9.270;2023-08-06T16:29:20;16.50;1.00
9323;DHT22;4700;48.822;9.270;2023-08-06T16:32:06;15.90;1.00
9323;DHT22;4700;48.822;9.270;2023-08-06T16:34:52;16.30;1.00
9323;DHT22;4700;48.822;9.270;2023-08-06T16:37:38;16.40;1.00
9323;DHT22;4700;48.822;9.270;2023-08-06T16:40:24;16.40;1.00
9323;DHT22;4700;48.822;9.270;2023-08-06T16:43:10;16.20;1.00
9323;DHT22;4700;48.822;9.270;2023-08-06T16:45:57;16.20;1.00
9323;DHT22;4700;48.822;9.270;2023-08-06T16:48:43;16.10;1.00
9323;DHT22;4700;48.822;9.270;2023-08-06T17:02:16;14.70;1.00
9323;DHT22;4700;48.822;9.270;2023-08-06T17:05:02;14.40;1.00
